sensor_id;sensor_type;location;lat;lon;timestamp;P1;durP1;ratioP1;P2;durP2;ratioP2
14984;SDS011;7588;62.368;25.902;2023-08-31T00:00:29;0.80;;;0.22;;
14984;SDS011;7588;62.368;25.902;2023-08-31T00:02:56;0.75;;;0.30;;
14984;SDS011;7588;62.368;25.902;2023-08-31T00:05:22;0.88;;;0.30;;
14984;SDS011;7588;62.368;25.902;2023-08-31T00:07:49;0.98;;;0.50;;
14984;SDS011;7588;62.368;25.902;2023-08-31T00:10:16;0.82;;;0.50;;
14984;SDS011;7588;62.368;25.902;2023-08-31T00:12:42;0.85;;;0.32;;
14984;SDS011;7588;62.368;25.902;2023-08-31T00:15:08;1.23;;;0.50;;
14984;SDS011;7588;62.368;25.902;2023-08-31T00:17:34;1.65;;;0.43;;
14984;SDS011;7588;62.368;25.902;2023-08-31T00:19:59;1.25;;;0.50;;
14984;SDS011;7588;62.368;25.902;2023-08-31T00:22:25;0.90;;;0.40;;
14984;SDS011;7588;62.368;25.902;2023-08-31T00:24:50;1.23;;;0.50;;
14984;SDS011;7588;62.368;25.902;2023-08-31T00:27:16;1.67;;;0.60;;
14984;SDS011;7588;62.368;25.902;2023-08-31T00:29:42;1.42;;;0.90;;
14984;SDS011;7588;62.368;25.902;2023-08-31T00:32:14;2.08;;;0.88;;
14984;SDS011;7588;62.368;25.902;2023-08-31T00:34:40;2.22;;;0.82;;
14984;SDS011;7588;62.368;25.902;2023-08-31T00:37:06;1.80;;;0.63;;
14984;SDS011;7588;62.368;25.902;2023-08-31T00:39:31;1.13;;;0.57;;
14984;SDS011;7588;62.368;25.902;2023-08-31T00:41:58;2.88;;;0.88;;
14984;SDS011;7588;62.368;25.902;2023-08-31T00:44:24;2.53;;;0.85;;
14984;SDS011;7588;62.368;25.902;2023-08-31T00:46:49;1.60;;;0.82;;
14984;SDS011;7588;62.368;25.902;2023-08-31T00:49:15;1.75;;;0.80;;
14984;SDS011;7588;62.368;25.902;2023-08-31T00:51:40;1.63;;;0.45;;
14984;SDS011;7588;62.368;25.902;2023-08-31T00:54:06;2.55;;;0.82;;
14984;SDS011;7588;62.368;25.902;2023-08-31T00:56:31;1.77;;;0.98;;
14984;SDS011;7588;62.368;25.902;2023-08-31T00:58:57;1.95;;;1.08;;
14984;SDS011;7588;62.368;25.902;2023-08-31T01:09:31;1.60;;;1.10;;
14984;SDS011;7588;62.368;25.902;2023-08-31T01:12:10;1.38;;;0.90;;
14984;SDS011;7588;62.368;25.902;2023-08-31T01:15:04;1.42;;;0.95;;
14984;SDS011;7588;62.368;25.902;2023-08-31T01:17:32;1.70;;;0.90;;
14984;SDS011;7588;62.368;25.902;2023-08-31T01:20:03;2.65;;;1.02;;
14984;SDS011;7588;62.368;25.902;2023-08-31T01:22:43;2.00;;;1.15;;
14984;SDS011;7588;62.368;25.902;2023-08-31T01:25:09;2.63;;;1.13;;
14984;SDS011;7588;62.368;25.902;2023-08-31T01:27:35;1.67;;;1.10;;
14984;SDS011;7588;62.368;25.902;2023-08-31T01:30:04;1.92;;;1.05;;
14984;SDS011;7588;62.368;25.902;2023-08-31T01:32:30;1.88;;;1.20;;
14984;SDS011;7588;62.368;25.902;2023-08-31T01:34:56;2.72;;;1.02;;
14984;SDS011;7588;62.368;25.902;2023-08-31T01:37:31;2.10;;;1.05;;
14984;SDS011;7588;62.368;25.902;2023-08-31T01:40:03;2.40;;;1.52;;
14984;SDS011;7588;62.368;25.902;2023-08-31T01:42:32;2.90;;;1.45;;
14984;SDS011;7588;62.368;25.902;2023-08-31T01:44:58;2.53;;;1.52;;
14984;SDS011;7588;62.368;25.902;2023-08-31T01:47:24;1.90;;;1.20;;
14984;SDS011;7588;62.368;25.902;2023-08-31T01:49:51;3.00;;;1.48;;
14984;SDS011;7588;62.368;25.902;2023-08-31T01:52:17;1.50;;;1.05;;
14984;SDS011;7588;62.368;25.902;2023-08-31T01:54:42;2.97;;;1.60;;
14984;SDS011;7588;62.368;25.902;2023-08-31T01:57:07;2.95;;;1.45;;
14984;SDS011;7588;62.368;25.902;2023-08-31T01:59:33;2.80;;;1.42;;
14984;SDS011;7588;62.368;25.902;2023-08-31T02:02:00;1.70;;;1.02;;
14984;SDS011;7588;62.368;25.902;2023-08-31T02:04:26;1.45;;;1.13;;
14984;SDS011;7588;62.368;25.902;2023-08-31T02:06:51;2.38;;;1.45;;
14984;SDS011;7588;62.368;25.902;2023-08-31T02:09:16;2.75;;;1.95;;
14984;SDS011;7588;62.368;25.902;2023-08-31T02:11:42;1.60;;;1.20;;
14984;SDS011;7588;62.368;25.902;2023-08-31T02:14:07;2.50;;;2.15;;
14984;SDS011;7588;62.368;25.902;2023-08-31T02:16:33;2.40;;;1.73;;
14984;SDS011;7588;62.368;25.902;2023-08-31T02:18:59;2.67;;;1.67;;
14984;SDS011;7588;62.368;25.902;2023-08-31T02:21:24;2.10;;;1.30;;
14984;SDS011;7588;62.368;25.902;2023-08-31T02:23:50;2.33;;;1.63;;
14984;SDS011;7588;62.368;25.902;2023-08-31T02:26:15;2.10;;;1.73;;
14984;SDS011;7588;62.368;25.902;2023-08-31T02:28:41;2.55;;;1.30;;
14984;SDS011;7588;62.368;25.902;2023-08-31T02:31:06;2.42;;;1.88;;
14984;SDS011;7588;62.368;25.902;2023-08-31T02:33:31;2.33;;;1.83;;
14984;SDS011;7588;62.368;25.902;2023-08-31T02:35:57;1.98;;;1.15;;
14984;SDS011;7588;62.368;25.902;2023-08-31T02:38:23;1.77;;;1.20;;
14984;SDS011;7588;62.368;25.902;2023-08-31T02:40:48;1.85;;;1.02;;
14984;SDS011;7588;62.368;25.902;2023-08-31T02:43:14;2.00;;;1.50;;
14984;SDS011;7588;62.368;25.902;2023-08-31T02:45:40;1.52;;;1.42;;
14984;SDS011;7588;62.368;25.902;2023-08-31T02:48:08;1.50;;;1.10;;
14984;SDS011;7588;62.368;25.902;2023-08-31T02:50:34;1.35;;;1.20;;
14984;SDS011;7588;62.368;25.902;2023-08-31T02:53:00;1.67;;;1.20;;
14984;SDS011;7588;62.368;25.902;2023-08-31T02:55:25;1.55;;;1.13;;
14984;SDS011;7588;62.368;25.902;2023-08-31T02:57:51;1.35;;;1.08;;
14984;SDS011;7588;62.368;25.902;2023-08-31T03:00:16;1.20;;;1.00;;
14984;SDS011;7588;62.368;25.902;2023-08-31T03:02:46;1.33;;;1.10;;
14984;SDS011;7588;62.368;25.902;2023-08-31T03:05:18;1.48;;;1.38;;
14984;SDS011;7588;62.368;25.902;2023-08-31T03:07:43;1.50;;;1.38;;
14984;SDS011;7588;62.368;25.902;2023-08-31T03:10:09;1.48;;;1.08;;
14984;SDS011;7588;62.368;25.902;2023-08-31T03:12:35;2.17;;;1.30;;
14984;SDS011;7588;62.368;25.902;2023-08-31T03:15:01;1.60;;;1.45;;
14984;SDS011;7588;62.368;25.902;2023-08-31T03:17:26;1.60;;;1.50;;
14984;SDS011;7588;62.368;25.902;2023-08-31T03:19:51;1.77;;;1.10;;
14984;SDS011;7588;62.368;25.902;2023-08-31T03:22:17;1.40;;;1.20;;
14984;SDS011;7588;62.368;25.902;2023-08-31T03:24:42;1.15;;;1.00;;
14984;SDS011;7588;62.368;25.902;2023-08-31T03:27:08;1.70;;;0.93;;
14984;SDS011;7588;62.368;25.902;2023-08-31T03:29:33;1.40;;;1.13;;
14984;SDS011;7588;62.368;25.902;2023-08-31T03:31:59;1.23;;;1.10;;
14984;SDS011;7588;62.368;25.902;2023-08-31T03:34:29;1.30;;;0.80;;
14984;SDS011;7588;62.368;25.902;2023-08-31T03:36:55;1.30;;;1.00;;
14984;SDS011;7588;62.368;25.902;2023-08-31T03:39:21;1.02;;;0.93;;
14984;SDS011;7588;62.368;25.902;2023-08-31T03:41:46;1.10;;;0.90;;
14984;SDS011;7588;62.368;25.902;2023-08-31T03:44:12;1.02;;;0.93;;
14984;SDS011;7588;62.368;25.902;2023-08-31T03:46:37;1.13;;;0.85;;
14984;SDS011;7588;62.368;25.902;2023-08-31T03:49:03;0.80;;;0.73;;
14984;SDS011;7588;62.368;25.902;2023-08-31T03:51:28;1.10;;;1.00;;
14984;SDS011;7588;62.368;25.902;2023-08-31T03:53:54;0.77;;;0.70;;
14984;SDS011;7588;62.368;25.902;2023-08-31T03:56:21;0.95;;;0.80;;
14984;SDS011;7588;62.368;25.902;2023-08-31T03:58:47;1.38;;;0.63;;
14984;SDS011;7588;62.368;25.902;2023-08-31T04:01:12;1.08;;;0.57;;
14984;SDS011;7588;62.368;25.902;2023-08-31T04:03:39;1.20;;;1.02;;
14984;SDS011;7588;62.368;25.902;2023-08-31T04:06:05;1.00;;;0.77;;
14984;SDS011;7588;62.368;25.902;2023-08-31T04:08:30;1.33;;;1.23;;
14984;SDS011;7588;62.368;25.902;2023-08-31T04:10:56;1.48;;;0.70;;
14984;SDS011;7588;62.368;25.902;2023-08-31T04:13:21;1.23;;;0.43;;
14984;SDS011;7588;62.368;25.902;2023-08-31T04:15:47;1.00;;;0.85;;
14984;SDS011;7588;62.368;25.902;2023-08-31T04:18:12;1.00;;;0.80;;
14984;SDS011;7588;62.368;25.902;2023-08-31T04:20:38;0.88;;;0.70;;
14984;SDS011;7588;62.368;25.902;2023-08-31T04:23:04;1.02;;;0.93;;
14984;SDS011;7588;62.368;25.902;2023-08-31T04:25:29;0.80;;;0.68;;
14984;SDS011;7588;62.368;25.902;2023-08-31T04:27:58;0.82;;;0.70;;
14984;SDS011;7588;62.368;25.902;2023-08-31T04:30:24;0.95;;;0.70;;
14984;SDS011;7588;62.368;25.902;2023-08-31T04:32:49;0.95;;;0.55;;
14984;SDS011;7588;62.368;25.902;2023-08-31T04:35:15;1.05;;;0.40;;
14984;SDS011;7588;62.368;25.902;2023-08-31T04:37:40;0.50;;;0.40;;
14984;SDS011;7588;62.368;25.902;2023-08-31T04:40:06;0.93;;;0.40;;
14984;SDS011;7588;62.368;25.902;2023-08-31T04:42:33;0.52;;;0.30;;
14984;SDS011;7588;62.368;25.902;2023-08-31T04:44:59;0.65;;;0.43;;
14984;SDS011;7588;62.368;25.902;2023-08-31T04:47:24;0.70;;;0.30;;
14984;SDS011;7588;62.368;25.902;2023-08-31T04:49:50;0.60;;;0.32;;
14984;SDS011;7588;62.368;25.902;2023-08-31T04:52:15;0.75;;;0.47;;
14984;SDS011;7588;62.368;25.902;2023-08-31T04:54:40;0.77;;;0.32;;
14984;SDS011;7588;62.368;25.902;2023-08-31T04:57:06;0.65;;;0.43;;
14984;SDS011;7588;62.368;25.902;2023-08-31T04:59:32;0.70;;;0.40;;
14984;SDS011;7588;62.368;25.902;2023-08-31T05:01:57;0.82;;;0.32;;
14984;SDS011;7588;62.368;25.902;2023-08-31T05:04:23;0.85;;;0.55;;
14984;SDS011;7588;62.368;25.902;2023-08-31T05:06:48;0.60;;;0.20;;
14984;SDS011;7588;62.368;25.902;2023-08-31T05:09:14;0.88;;;0.52;;
14984;SDS011;7588;62.368;25.902;2023-08-31T05:11:39;2.45;;;0.40;;
14984;SDS011;7588;62.368;25.902;2023-08-31T05:14:04;0.70;;;0.20;;
14984;SDS011;7588;62.368;25.902;2023-08-31T05:16:30;0.93;;;0.50;;
14984;SDS011;7588;62.368;25.902;2023-08-31T05:18:55;0.95;;;0.57;;
14984;SDS011;7588;62.368;25.902;2023-08-31T05:21:21;0.50;;;0.20;;
14984;SDS011;7588;62.368;25.902;2023-08-31T05:23:46;2.58;;;0.50;;
14984;SDS011;7588;62.368;25.902;2023-08-31T05:26:11;0.57;;;0.17;;
14984;SDS011;7588;62.368;25.902;2023-08-31T05:28:37;0.82;;;0.28;;
14984;SDS011;7588;62.368;25.902;2023-08-31T05:31:02;0.40;;;0.10;;
14984;SDS011;7588;62.368;25.902;2023-08-31T05:33:29;0.30;;;0.20;;
14984;SDS011;7588;62.368;25.902;2023-08-31T05:35:59;0.20;;;0.00;;
14984;SDS011;7588;62.368;25.902;2023-08-31T05:38:25;1.60;;;0.05;;
14984;SDS011;7588;62.368;25.902;2023-08-31T05:40:51;0.20;;;0.00;;
14984;SDS011;7588;62.368;25.902;2023-08-31T05:43:16;0.20;;;0.00;;
14984;SDS011;7588;62.368;25.902;2023-08-31T05:45:42;0.13;;;0.00;;
14984;SDS011;7588;62.368;25.902;2023-08-31T05:48:07;0.25;;;0.00;;
14984;SDS011;7588;62.368;25.902;2023-08-31T05:50:33;0.20;;;0.03;;
14984;SDS011;7588;62.368;25.902;2023-08-31T05:53:01;0.22;;;0.03;;
14984;SDS011;7588;62.368;25.902;2023-08-31T05:55:27;0.20;;;0.10;;
14984;SDS011;7588;62.368;25.902;2023-08-31T05:57:52;0.20;;;0.03;;
14984;SDS011;7588;62.368;25.902;2023-08-31T06:00:18;0.85;;;0.20;;
14984;SDS011;7588;62.368;25.902;2023-08-31T06:02:44;0.30;;;0.00;;
14984;SDS011;7588;62.368;25.902;2023-08-31T06:05:12;0.10;;;0.00;;
14984;SDS011;7588;62.368;25.902;2023-08-31T06:07:38;0.20;;;0.10;;
14984;SDS011;7588;62.368;25.902;2023-08-31T06:10:04;0.10;;;0.00;;
14984;SDS011;7588;62.368;25.902;2023-08-31T06:12:30;0.25;;;0.10;;
14984;SDS011;7588;62.368;25.902;2023-08-31T06:14:56;0.30;;;0.00;;
14984;SDS011;7588;62.368;25.902;2023-08-31T06:17:21;0.20;;;0.10;;
14984;SDS011;7588;62.368;25.902;2023-08-31T06:19:47;0.20;;;0.00;;
14984;SDS011;7588;62.368;25.902;2023-08-31T06:22:12;0.20;;;0.00;;
14984;SDS011;7588;62.368;25.902;2023-08-31T06:24:38;0.30;;;0.05;;
14984;SDS011;7588;62.368;25.902;2023-08-31T06:27:03;0.30;;;0.10;;
14984;SDS011;7588;62.368;25.902;2023-08-31T06:29:29;0.30;;;0.10;;
14984;SDS011;7588;62.368;25.902;2023-08-31T06:31:55;0.40;;;0.10;;
14984;SDS011;7588;62.368;25.902;2023-08-31T06:34:20;0.40;;;0.10;;
14984;SDS011;7588;62.368;25.902;2023-08-31T06:36:46;0.40;;;0.20;;
14984;SDS011;7588;62.368;25.902;2023-08-31T06:39:11;0.40;;;0.20;;
14984;SDS011;7588;62.368;25.902;2023-08-31T06:41:36;0.40;;;0.15;;
14984;SDS011;7588;62.368;25.902;2023-08-31T06:44:02;0.40;;;0.10;;
14984;SDS011;7588;62.368;25.902;2023-08-31T06:46:29;0.20;;;0.10;;
14984;SDS011;7588;62.368;25.902;2023-08-31T06:48:55;0.20;;;0.00;;
14984;SDS011;7588;62.368;25.902;2023-08-31T06:51:20;0.20;;;0.00;;
14984;SDS011;7588;62.368;25.902;2023-08-31T06:53:45;0.22;;;0.13;;
14984;SDS011;7588;62.368;25.902;2023-08-31T06:56:11;0.20;;;0.10;;
14984;SDS011;7588;62.368;25.902;2023-08-31T06:58:36;0.20;;;0.10;;
14984;SDS011;7588;62.368;25.902;2023-08-31T07:01:05;0.28;;;0.28;;
14984;SDS011;7588;62.368;25.902;2023-08-31T07:03:30;0.20;;;0.00;;
14984;SDS011;7588;62.368;25.902;2023-08-31T07:05:56;0.20;;;0.10;;
14984;SDS011;7588;62.368;25.902;2023-08-31T07:08:21;0.25;;;0.08;;
14984;SDS011;7588;62.368;25.902;2023-08-31T07:10:49;0.10;;;0.00;;
14984;SDS011;7588;62.368;25.902;2023-08-31T07:13:15;0.10;;;0.00;;
14984;SDS011;7588;62.368;25.902;2023-08-31T07:15:41;0.45;;;0.00;;
14984;SDS011;7588;62.368;25.902;2023-08-31T07:18:06;0.10;;;0.00;;
14984;SDS011;7588;62.368;25.902;2023-08-31T07:20:32;0.17;;;0.03;;
14984;SDS011;7588;62.368;25.902;2023-08-31T07:22:58;0.20;;;0.00;;
14984;SDS011;7588;62.368;25.902;2023-08-31T07:25:24;0.10;;;0.00;;
14984;SDS011;7588;62.368;25.902;2023-08-31T07:27:50;0.10;;;0.00;;
14984;SDS011;7588;62.368;25.902;2023-08-31T07:30:15;0.10;;;0.00;;
14984;SDS011;7588;62.368;25.902;2023-08-31T07:32:41;0.10;;;0.00;;
14984;SDS011;7588;62.368;25.902;2023-08-31T07:35:06;0.08;;;0.00;;
14984;SDS011;7588;62.368;25.902;2023-08-31T07:37:32;0.20;;;0.10;;
14984;SDS011;7588;62.368;25.902;2023-08-31T07:39:57;0.13;;;0.00;;
14984;SDS011;7588;62.368;25.902;2023-08-31T07:42:23;0.10;;;0.00;;
14984;SDS011;7588;62.368;25.902;2023-08-31T07:44:48;0.35;;;0.35;;
14984;SDS011;7588;62.368;25.902;2023-08-31T07:47:14;0.10;;;0.00;;
14984;SDS011;7588;62.368;25.902;2023-08-31T07:49:39;1.65;;;0.10;;
14984;SDS011;7588;62.368;25.902;2023-08-31T07:52:05;0.10;;;0.00;;
14984;SDS011;7588;62.368;25.902;2023-08-31T07:54:30;0.10;;;0.00;;
14984;SDS011;7588;62.368;25.902;2023-08-31T07:56:56;0.10;;;0.00;;
14984;SDS011;7588;62.368;25.902;2023-08-31T07:59:21;0.10;;;0.05;;
14984;SDS011;7588;62.368;25.902;2023-08-31T08:01:47;0.10;;;0.00;;
14984;SDS011;7588;62.368;25.902;2023-08-31T08:04:12;0.10;;;0.00;;
14984;SDS011;7588;62.368;25.902;2023-08-31T08:06:38;0.17;;;0.00;;
14984;SDS011;7588;62.368;25.902;2023-08-31T08:09:03;0.13;;;0.13;;
14984;SDS011;7588;62.368;25.902;2023-08-31T08:11:29;0.10;;;0.10;;
14984;SDS011;7588;62.368;25.902;2023-08-31T08:13:55;0.17;;;0.00;;
14984;SDS011;7588;62.368;25.902;2023-08-31T08:16:21;0.13;;;0.00;;
14984;SDS011;7588;62.368;25.902;2023-08-31T08:18:46;0.10;;;0.08;;
14984;SDS011;7588;62.368;25.902;2023-08-31T08:21:12;0.03;;;0.00;;
14984;SDS011;7588;62.368;25.902;2023-08-31T08:23:37;0.10;;;0.00;;
14984;SDS011;7588;62.368;25.902;2023-08-31T08:26:02;0.20;;;0.20;;
14984;SDS011;7588;62.368;25.902;2023-08-31T08:28:28;0.10;;;0.00;;
14984;SDS011;7588;62.368;25.902;2023-08-31T08:30:53;0.10;;;0.00;;
14984;SDS011;7588;62.368;25.902;2023-08-31T08:33:19;0.30;;;0.10;;
14984;SDS011;7588;62.368;25.902;2023-08-31T08:35:45;0.10;;;0.00;;
14984;SDS011;7588;62.368;25.902;2023-08-31T08:38:11;0.17;;;0.10;;
14984;SDS011;7588;62.368;25.902;2023-08-31T08:40:36;0.10;;;0.00;;
14984;SDS011;7588;62.368;25.902;2023-08-31T08:43:02;0.05;;;0.00;;
14984;SDS011;7588;62.368;25.902;2023-08-31T08:45:35;0.10;;;0.00;;
14984;SDS011;7588;62.368;25.902;2023-08-31T08:48:04;0.10;;;0.00;;
14984;SDS011;7588;62.368;25.902;2023-08-31T08:50:31;0.10;;;0.00;;
14984;SDS011;7588;62.368;25.902;2023-08-31T08:52:58;0.00;;;0.00;;
14984;SDS011;7588;62.368;25.902;2023-08-31T08:55:24;0.10;;;0.10;;
14984;SDS011;7588;62.368;25.902;2023-08-31T08:57:50;0.40;;;0.00;;
14984;SDS011;7588;62.368;25.902;2023-08-31T09:00:15;0.10;;;0.00;;
14984;SDS011;7588;62.368;25.902;2023-08-31T09:02:41;0.00;;;0.00;;
14984;SDS011;7588;62.368;25.902;2023-08-31T09:05:06;0.10;;;0.00;;
14984;SDS011;7588;62.368;25.902;2023-08-31T09:07:34;0.00;;;0.00;;
14984;SDS011;7588;62.368;25.902;2023-08-31T09:10:03;0.00;;;0.00;;
14984;SDS011;7588;62.368;25.902;2023-08-31T09:12:29;0.10;;;0.00;;
14984;SDS011;7588;62.368;25.902;2023-08-31T09:17:26;0.03;;;0.00;;
14984;SDS011;7588;62.368;25.902;2023-08-31T09:20:01;0.38;;;0.00;;
14984;SDS011;7588;62.368;25.902;2023-08-31T09:22:30;0.10;;;0.00;;
14984;SDS011;7588;62.368;25.902;2023-08-31T09:24:55;0.10;;;0.10;;
14984;SDS011;7588;62.368;25.902;2023-08-31T09:27:21;0.10;;;0.10;;
14984;SDS011;7588;62.368;25.902;2023-08-31T09:29:48;0.08;;;0.00;;
14984;SDS011;7588;62.368;25.902;2023-08-31T09:32:17;0.10;;;0.00;;
14984;SDS011;7588;62.368;25.902;2023-08-31T09:34:43;0.00;;;0.00;;
14984;SDS011;7588;62.368;25.902;2023-08-31T09:37:08;0.10;;;0.05;;
14984;SDS011;7588;62.368;25.902;2023-08-31T09:39:38;0.03;;;0.00;;
14984;SDS011;7588;62.368;25.902;2023-08-31T09:42:04;0.00;;;0.00;;
14984;SDS011;7588;62.368;25.902;2023-08-31T09:44:30;0.00;;;0.00;;
14984;SDS011;7588;62.368;25.902;2023-08-31T09:46:56;0.00;;;0.00;;
14984;SDS011;7588;62.368;25.902;2023-08-31T09:49:21;0.10;;;0.00;;
14984;SDS011;7588;62.368;25.902;2023-08-31T09:51:48;0.10;;;0.00;;
14984;SDS011;7588;62.368;25.902;2023-08-31T09:54:15;0.10;;;0.00;;
14984;SDS011;7588;62.368;25.902;2023-08-31T09:56:43;0.00;;;0.00;;
14984;SDS011;7588;62.368;25.902;2023-08-31T09:59:12;0.17;;;0.10;;
14984;SDS011;7588;62.368;25.902;2023-08-31T10:01:39;0.03;;;0.00;;
14984;SDS011;7588;62.368;25.902;2023-08-31T10:04:05;0.10;;;0.10;;
14984;SDS011;7588;62.368;25.902;2023-08-31T10:06:33;0.10;;;0.00;;
14984;SDS011;7588;62.368;25.902;2023-08-31T10:09:00;1.15;;;0.00;;
14984;SDS011;7588;62.368;25.902;2023-08-31T10:11:26;0.10;;;0.00;;
14984;SDS011;7588;62.368;25.902;2023-08-31T10:13:51;0.10;;;0.10;;
14984;SDS011;7588;62.368;25.902;2023-08-31T10:16:19;0.20;;;0.00;;
14984;SDS011;7588;62.368;25.902;2023-08-31T10:18:44;0.10;;;0.00;;
14984;SDS011;7588;62.368;25.902;2023-08-31T10:21:10;0.10;;;0.00;;
14984;SDS011;7588;62.368;25.902;2023-08-31T10:23:36;0.17;;;0.00;;
14984;SDS011;7588;62.368;25.902;2023-08-31T10:26:02;0.10;;;0.10;;
14984;SDS011;7588;62.368;25.902;2023-08-31T10:28:28;0.10;;;0.00;;
14984;SDS011;7588;62.368;25.902;2023-08-31T10:33:26;0.45;;;0.00;;
14984;SDS011;7588;62.368;25.902;2023-08-31T10:35:54;0.20;;;0.00;;
14984;SDS011;7588;62.368;25.902;2023-08-31T10:41:03;0.20;;;0.00;;
14984;SDS011;7588;62.368;25.902;2023-08-31T10:46:24;0.10;;;0.00;;
14984;SDS011;7588;62.368;25.902;2023-08-31T10:49:15;0.20;;;0.00;;
14984;SDS011;7588;62.368;25.902;2023-08-31T10:51:43;0.10;;;0.10;;
14984;SDS011;7588;62.368;25.902;2023-08-31T10:54:11;0.10;;;0.10;;
14984;SDS011;7588;62.368;25.902;2023-08-31T10:56:51;0.10;;;0.10;;
14984;SDS011;7588;62.368;25.902;2023-08-31T10:59:18;0.30;;;0.20;;
14984;SDS011;7588;62.368;25.902;2023-08-31T11:01:57;0.10;;;0.00;;
14984;SDS011;7588;62.368;25.902;2023-08-31T11:04:28;0.10;;;0.00;;
14984;SDS011;7588;62.368;25.902;2023-08-31T11:09:38;0.20;;;0.10;;
14984;SDS011;7588;62.368;25.902;2023-08-31T11:12:04;0.13;;;0.00;;
14984;SDS011;7588;62.368;25.902;2023-08-31T11:14:29;0.13;;;0.13;;
14984;SDS011;7588;62.368;25.902;2023-08-31T11:16:55;0.10;;;0.00;;
14984;SDS011;7588;62.368;25.902;2023-08-31T11:19:21;0.30;;;0.00;;
14984;SDS011;7588;62.368;25.902;2023-08-31T11:21:46;0.15;;;0.10;;
14984;SDS011;7588;62.368;25.902;2023-08-31T11:24:12;0.10;;;0.00;;
14984;SDS011;7588;62.368;25.902;2023-08-31T11:26:37;0.10;;;0.00;;
14984;SDS011;7588;62.368;25.902;2023-08-31T11:29:05;0.10;;;0.10;;
14984;SDS011;7588;62.368;25.902;2023-08-31T11:31:32;0.10;;;0.00;;
14984;SDS011;7588;62.368;25.902;2023-08-31T11:33:57;0.10;;;0.00;;
14984;SDS011;7588;62.368;25.902;2023-08-31T11:36:23;0.30;;;0.00;;
14984;SDS011;7588;62.368;25.902;2023-08-31T11:38:49;0.10;;;0.10;;
14984;SDS011;7588;62.368;25.902;2023-08-31T11:41:15;0.10;;;0.00;;
14984;SDS011;7588;62.368;25.902;2023-08-31T11:43:41;0.25;;;0.10;;
14984;SDS011;7588;62.368;25.902;2023-08-31T11:46:07;0.13;;;0.00;;
14984;SDS011;7588;62.368;25.902;2023-08-31T11:48:33;0.10;;;0.00;;
14984;SDS011;7588;62.368;25.902;2023-08-31T11:50:59;0.03;;;0.00;;
14984;SDS011;7588;62.368;25.902;2023-08-31T11:53:25;0.10;;;0.00;;
14984;SDS011;7588;62.368;25.902;2023-08-31T11:55:52;0.30;;;0.00;;
14984;SDS011;7588;62.368;25.902;2023-08-31T11:58:19;0.10;;;0.00;;
14984;SDS011;7588;62.368;25.902;2023-08-31T12:03:24;0.10;;;0.00;;
14984;SDS011;7588;62.368;25.902;2023-08-31T12:05:51;0.10;;;0.00;;
14984;SDS011;7588;62.368;25.902;2023-08-31T12:08:23;0.30;;;0.10;;
14984;SDS011;7588;62.368;25.902;2023-08-31T12:10:51;0.20;;;0.00;;
14984;SDS011;7588;62.368;25.902;2023-08-31T12:13:16;0.10;;;0.10;;
14984;SDS011;7588;62.368;25.902;2023-08-31T12:15:42;0.52;;;0.52;;
14984;SDS011;7588;62.368;25.902;2023-08-31T12:18:08;0.20;;;0.00;;
14984;SDS011;7588;62.368;25.902;2023-08-31T12:20:34;0.40;;;0.10;;
14984;SDS011;7588;62.368;25.902;2023-08-31T12:23:06;0.30;;;0.00;;
14984;SDS011;7588;62.368;25.902;2023-08-31T12:25:33;0.82;;;0.03;;
14984;SDS011;7588;62.368;25.902;2023-08-31T12:27:58;0.20;;;0.00;;
14984;SDS011;7588;62.368;25.902;2023-08-31T12:30:23;0.38;;;0.30;;
14984;SDS011;7588;62.368;25.902;2023-08-31T12:32:50;0.68;;;0.10;;
14984;SDS011;7588;62.368;25.902;2023-08-31T12:35:17;0.13;;;0.00;;
14984;SDS011;7588;62.368;25.902;2023-08-31T12:37:42;0.20;;;0.03;;
14984;SDS011;7588;62.368;25.902;2023-08-31T12:40:08;0.98;;;0.98;;
14984;SDS011;7588;62.368;25.902;2023-08-31T12:42:35;0.93;;;0.80;;
14984;SDS011;7588;62.368;25.902;2023-08-31T12:45:00;0.50;;;0.30;;
14984;SDS011;7588;62.368;25.902;2023-08-31T12:47:26;0.40;;;0.20;;
14984;SDS011;7588;62.368;25.902;2023-08-31T12:49:51;0.20;;;0.10;;
14984;SDS011;7588;62.368;25.902;2023-08-31T12:52:17;0.30;;;0.10;;
14984;SDS011;7588;62.368;25.902;2023-08-31T12:54:42;0.20;;;0.05;;
14984;SDS011;7588;62.368;25.902;2023-08-31T12:57:08;0.20;;;0.00;;
14984;SDS011;7588;62.368;25.902;2023-08-31T12:59:33;0.30;;;0.20;;
14984;SDS011;7588;62.368;25.902;2023-08-31T13:01:58;0.60;;;0.20;;
14984;SDS011;7588;62.368;25.902;2023-08-31T13:04:24;0.20;;;0.10;;
14984;SDS011;7588;62.368;25.902;2023-08-31T13:06:49;0.30;;;0.17;;
14984;SDS011;7588;62.368;25.902;2023-08-31T13:09:15;0.20;;;0.00;;
14984;SDS011;7588;62.368;25.902;2023-08-31T13:11:40;0.60;;;0.40;;
14984;SDS011;7588;62.368;25.902;2023-08-31T13:14:06;0.30;;;0.10;;
14984;SDS011;7588;62.368;25.902;2023-08-31T13:16:31;0.73;;;0.10;;
14984;SDS011;7588;62.368;25.902;2023-08-31T13:18:58;0.30;;;0.00;;
14984;SDS011;7588;62.368;25.902;2023-08-31T13:21:23;0.40;;;0.20;;
14984;SDS011;7588;62.368;25.902;2023-08-31T13:23:49;0.30;;;0.10;;
14984;SDS011;7588;62.368;25.902;2023-08-31T13:26:14;0.28;;;0.20;;
14984;SDS011;7588;62.368;25.902;2023-08-31T13:28:39;0.30;;;0.20;;
14984;SDS011;7588;62.368;25.902;2023-08-31T13:31:06;0.30;;;0.13;;
14984;SDS011;7588;62.368;25.902;2023-08-31T13:33:31;0.65;;;0.10;;
14984;SDS011;7588;62.368;25.902;2023-08-31T13:35:57;0.40;;;0.20;;
14984;SDS011;7588;62.368;25.902;2023-08-31T13:38:26;1.42;;;0.20;;
14984;SDS011;7588;62.368;25.902;2023-08-31T13:40:55;0.85;;;0.15;;
14984;SDS011;7588;62.368;25.902;2023-08-31T13:43:22;1.08;;;0.43;;
14984;SDS011;7588;62.368;25.902;2023-08-31T13:45:48;0.30;;;0.20;;
14984;SDS011;7588;62.368;25.902;2023-08-31T13:48:13;0.75;;;0.13;;
14984;SDS011;7588;62.368;25.902;2023-08-31T13:50:38;0.47;;;0.20;;
14984;SDS011;7588;62.368;25.902;2023-08-31T13:53:04;0.60;;;0.20;;
14984;SDS011;7588;62.368;25.902;2023-08-31T13:55:29;0.40;;;0.10;;
14984;SDS011;7588;62.368;25.902;2023-08-31T13:57:57;0.35;;;0.10;;
14984;SDS011;7588;62.368;25.902;2023-08-31T14:00:29;0.52;;;0.22;;
14984;SDS011;7588;62.368;25.902;2023-08-31T14:02:54;0.25;;;0.10;;
14984;SDS011;7588;62.368;25.902;2023-08-31T14:05:19;0.57;;;0.52;;
14984;SDS011;7588;62.368;25.902;2023-08-31T14:07:45;0.20;;;0.10;;
14984;SDS011;7588;62.368;25.902;2023-08-31T14:10:10;0.77;;;0.77;;
14984;SDS011;7588;62.368;25.902;2023-08-31T14:12:36;0.32;;;0.08;;
14984;SDS011;7588;62.368;25.902;2023-08-31T14:15:01;0.20;;;0.00;;
14984;SDS011;7588;62.368;25.902;2023-08-31T14:17:30;0.30;;;0.10;;
14984;SDS011;7588;62.368;25.902;2023-08-31T14:19:58;0.40;;;0.10;;
14984;SDS011;7588;62.368;25.902;2023-08-31T14:22:24;0.30;;;0.10;;
14984;SDS011;7588;62.368;25.902;2023-08-31T14:24:49;0.40;;;0.20;;
14984;SDS011;7588;62.368;25.902;2023-08-31T14:27:14;0.43;;;0.05;;
14984;SDS011;7588;62.368;25.902;2023-08-31T14:29:40;0.50;;;0.30;;
14984;SDS011;7588;62.368;25.902;2023-08-31T14:32:05;0.30;;;0.20;;
14984;SDS011;7588;62.368;25.902;2023-08-31T14:34:31;0.70;;;0.45;;
14984;SDS011;7588;62.368;25.902;2023-08-31T14:36:57;0.50;;;0.43;;
14984;SDS011;7588;62.368;25.902;2023-08-31T14:39:24;1.35;;;0.70;;
14984;SDS011;7588;62.368;25.902;2023-08-31T14:41:54;0.70;;;0.60;;
14984;SDS011;7588;62.368;25.902;2023-08-31T14:44:20;0.60;;;0.28;;
14984;SDS011;7588;62.368;25.902;2023-08-31T14:46:45;0.30;;;0.10;;
14984;SDS011;7588;62.368;25.902;2023-08-31T14:49:11;0.30;;;0.20;;
14984;SDS011;7588;62.368;25.902;2023-08-31T14:51:36;0.40;;;0.20;;
14984;SDS011;7588;62.368;25.902;2023-08-31T14:54:02;0.20;;;0.10;;
14984;SDS011;7588;62.368;25.902;2023-08-31T14:56:27;0.30;;;0.03;;
14984;SDS011;7588;62.368;25.902;2023-08-31T14:58:53;0.55;;;0.22;;
14984;SDS011;7588;62.368;25.902;2023-08-31T15:01:18;0.13;;;0.00;;
14984;SDS011;7588;62.368;25.902;2023-08-31T15:03:44;0.20;;;0.00;;
14984;SDS011;7588;62.368;25.902;2023-08-31T15:06:09;0.32;;;0.32;;